Capitol Logistics 81


YSSY
Kingsford Smith International Airport
Sydney, AU
PHNL
Daniel K Inouye International Airport
Honolulu, US

Activity Log

Date Flight Route Aircraft Duration
12/01/2019 CPX81 ENTRA JORDY A579 CARRP OPACA4 B744 9h 16m
04/25/2019 CPX81 nobar a579 carrp opaca4 B744 8h 51m

Route Details

Aircraft Information
Primary: Boeing 747-400BCF
Backup: Boeing 777-200LRF
Route Data
Distance: 4417nm
Sched. Duration: 10h 30m
Avg. Duration: 8h 83m (-146m)
Times Flown: 2
Recm'd Route: TESAT G595 GUTIV DUDEP NATLI A579 UBLIN A579 VIRAR 23S170E 18S175E 15S178E 13S180E IDEMU A579 CUFFY A579 CHEEM A579 CARRP
Planned Altitude: 31,000ft
Origin Wx: YSSY 210800Z 13014KT 9999 SCT030 BKN045 23/17 Q1017 NOSIG
Dest. Wx: PHNL 210753Z 07018G23KT 10SM FEW024 FEW038 23/16 A3017 RMK AO2 PK WND 06027/0715 SLP217 T02280156
Notes:

Financial History
Total Freight: 311,453lbs
Average Load: 155,727lbs/flt
Fuel Used: 377,183lbs
Avg. Fuel Used: 188,592lbs/flt
Fuel Expense: $301,746
Avg. Fuel Expense: $150,873
Avg. Fuel Cost: $0.80/lbs
Total Gross Income: $1,077,984
Pilot Pay: $388
Total Expenses: $116,526
Total Revenue: $656,201
Average Revenue: $538,991.97